createdAt,value
2023-04-09T00:01:09.415Z,102360.91
2023-04-09T00:03:38.261Z,102366.56
2023-04-09T00:06:08.165Z,102366.56
2023-04-09T00:08:35.451Z,102364.34
2023-04-09T00:11:02.378Z,102362.13
2023-04-09T00:13:38.592Z,102369.28
2023-04-09T00:16:09.921Z,102372.72
2023-04-09T00:18:39.243Z,102371.50
2023-04-09T00:21:16.157Z,102363.88
2023-04-09T00:23:43.944Z,102365.06
2023-04-09T00:26:10.980Z,102368.00
2023-04-09T00:28:37.998Z,102362.84
2023-04-09T00:31:05.639Z,102359.66
2023-04-09T00:33:32.740Z,102364.94
2023-04-09T00:36:02.207Z,102360.88
2023-04-09T00:38:31.905Z,102360.88
2023-04-09T00:40:58.797Z,102354.22
2023-04-09T00:43:25.892Z,102354.91
2023-04-09T00:45:53.115Z,102359.16
2023-04-09T00:48:20.872Z,102359.63
2023-04-09T00:50:50.319Z,102354.06
2023-04-09T00:53:18.308Z,102353.78
2023-04-09T00:55:50.297Z,102358.38
2023-04-09T00:58:20.556Z,102355.69
2023-04-09T01:00:47.717Z,102352.50
2023-04-09T01:03:17.354Z,102357.44
2023-04-09T01:06:07.459Z,102351.88
2023-04-09T01:09:25.256Z,102356.31
2023-04-09T01:12:53.832Z,102357.28
2023-04-09T01:15:32.369Z,102350.25
2023-04-09T01:18:25.191Z,102351.50
2023-04-09T01:21:14.541Z,102363.69
2023-04-09T01:23:54.976Z,102354.41
2023-04-09T01:27:01.573Z,102354.66
2023-04-09T01:29:33.584Z,102350.59
2023-04-09T01:32:06.056Z,102357.84
2023-04-09T01:34:36.673Z,102350.69
2023-04-09T01:37:04.571Z,102350.34
2023-04-09T01:39:32.873Z,102345.53
2023-04-09T01:42:02.106Z,102340.84
2023-04-09T01:44:29.990Z,102346.47
2023-04-09T01:46:59.351Z,102348.22
2023-04-09T01:49:27.996Z,102343.56
2023-04-09T01:51:55.379Z,102344.31
2023-04-09T01:54:22.430Z,102345.06
2023-04-09T01:56:49.566Z,102336.91
2023-04-09T01:59:16.594Z,102337.94
2023-04-09T02:01:54.505Z,102336.97
2023-04-09T02:04:33.764Z,102340.94
2023-04-09T02:07:10.658Z,102338.63
2023-04-09T02:09:40.790Z,102330.31
2023-04-09T02:12:16.949Z,102332.28
2023-04-09T02:14:47.134Z,102334.41
2023-04-09T02:17:17.617Z,102329.84
2023-04-09T02:19:47.973Z,102325.53
2023-04-09T02:22:16.938Z,102333.31
2023-04-09T02:24:46.791Z,102331.59
2023-04-09T02:27:13.783Z,102328.13
2023-04-09T02:29:43.990Z,102335.03
2023-04-09T02:32:10.953Z,102327.16
2023-04-09T02:34:38.013Z,102329.88
2023-04-09T02:37:05.035Z,102337.50
2023-04-09T02:39:32.194Z,102325.56
2023-04-09T02:41:59.200Z,102328.00
2023-04-09T02:44:28.649Z,102332.34
2023-04-09T02:46:56.445Z,102325.81
2023-04-09T02:49:23.574Z,102327.41
2023-04-09T02:51:56.056Z,102328.38
2023-04-09T02:54:25.321Z,102324.56
2023-04-09T02:56:52.388Z,102315.19
2023-04-09T02:59:19.326Z,102313.38
2023-04-09T03:01:49.399Z,102322.00
2023-04-09T03:04:21.759Z,102313.00
2023-04-09T03:06:51.751Z,102312.88
2023-04-09T03:09:18.805Z,102306.84
2023-04-09T03:11:45.747Z,102309.94
2023-04-09T03:14:12.719Z,102305.63
2023-04-09T03:16:41.877Z,102309.56
2023-04-09T03:19:08.851Z,102317.81
2023-04-09T03:21:35.903Z,102320.53
2023-04-09T03:24:05.909Z,102309.19
2023-04-09T03:26:36.486Z,102306.72
2023-04-09T03:29:04.972Z,102316.47
2023-04-09T03:31:34.654Z,102305.88
2023-04-09T03:34:01.593Z,102302.31
2023-04-09T03:36:31.231Z,102310.44
2023-04-09T03:38:58.179Z,102311.69
2023-04-09T03:41:26.657Z,102311.69
2023-04-09T03:43:56.087Z,102318.06
2023-04-09T03:46:25.446Z,102313.78
2023-04-09T03:48:57.070Z,102309.94
2023-04-09T03:51:24.171Z,102317.72
2023-04-09T03:53:51.456Z,102307.25
2023-04-09T03:56:18.427Z,102311.94
2023-04-09T03:58:51.011Z,102311.19
2023-04-09T04:01:18.190Z,102308.59
2023-04-09T04:03:48.307Z,102312.41
2023-04-09T04:06:17.532Z,102306.03
2023-04-09T04:08:46.703Z,102293.22
2023-04-09T04:11:16.168Z,102303.19
2023-04-09T04:13:45.357Z,102305.50
2023-04-09T04:16:14.832Z,102302.06
2023-04-09T04:18:41.779Z,102297.25
2023-04-09T04:21:14.620Z,102295.91
2023-04-09T04:23:41.802Z,102295.03
2023-04-09T04:26:10.947Z,102300.19
2023-04-09T04:28:39.415Z,102311.75
2023-04-09T04:31:12.917Z,102316.34
2023-04-09T04:33:42.106Z,102315.47
2023-04-09T04:36:11.845Z,102309.31
2023-04-09T04:38:41.896Z,102311.28
2023-04-09T04:41:11.271Z,102324.97
2023-04-09T04:43:41.504Z,102315.88
2023-04-09T04:46:08.560Z,102320.28
2023-04-09T04:48:37.994Z,102323.00
2023-04-09T04:51:05.150Z,102318.69
2023-04-09T04:53:35.168Z,102326.19
2023-04-09T04:56:04.369Z,102325.72
2023-04-09T04:58:31.485Z,102323.50
2023-04-09T05:00:58.528Z,102323.00
2023-04-09T05:03:27.472Z,102321.78
2023-04-09T05:05:54.753Z,102324.00
2023-04-09T05:08:28.903Z,102323.50
2023-04-09T05:10:56.298Z,102324.22
2023-04-09T05:13:24.204Z,102328.41
2023-04-09T05:15:54.214Z,102326.44
2023-04-09T05:18:21.626Z,102331.63
2023-04-09T05:20:48.543Z,102337.16
2023-04-09T05:23:18.508Z,102338.03
2023-04-09T05:25:45.432Z,102341.47
2023-04-09T05:28:12.387Z,102335.06
2023-04-09T05:30:41.917Z,102336.53
2023-04-09T05:33:11.230Z,102339.00
2023-04-09T05:35:41.518Z,102341.22
2023-04-09T05:38:11.139Z,102344.38
2023-04-09T05:40:38.108Z,102336.38
2023-04-09T05:43:05.581Z,102347.47
2023-04-09T05:45:32.517Z,102343.69
2023-04-09T05:47:59.598Z,102344.88
2023-04-09T05:50:29.222Z,102346.63
2023-04-09T05:52:56.183Z,102348.84
2023-04-09T05:55:23.140Z,102351.69
2023-04-09T05:57:55.011Z,102354.72
2023-04-09T06:00:27.542Z,102339.94
2023-04-09T06:02:54.591Z,102353.88
2023-04-09T06:05:23.667Z,102359.44
2023-04-09T06:07:50.617Z,102360.28
2023-04-09T06:10:19.778Z,102356.97
2023-04-09T06:12:49.132Z,102352.19
2023-04-09T06:15:17.054Z,102345.28
2023-04-09T06:17:44.140Z,102355.47
2023-04-09T06:20:11.758Z,102352.03
2023-04-09T06:22:38.937Z,102352.22
2023-04-09T06:25:07.191Z,102349.22
2023-04-09T06:27:34.378Z,102352.69
2023-04-09T06:30:03.853Z,102361.38
2023-04-09T06:32:33.535Z,102370.00
2023-04-09T06:35:02.636Z,102370.50
2023-04-09T06:37:31.912Z,102370.75
2023-04-09T06:40:01.394Z,102357.41
2023-04-09T06:42:28.913Z,102369.03
2023-04-09T06:44:56.015Z,102370.53
2023-04-09T06:47:23.107Z,102371.34
2023-04-09T06:49:50.038Z,102377.66
2023-04-09T06:52:16.984Z,102378.63
2023-04-09T06:54:46.613Z,102370.97
2023-04-09T06:57:15.769Z,102382.03
2023-04-09T06:59:47.449Z,102380.44
2023-04-09T07:02:14.501Z,102385.59
2023-04-09T07:04:41.893Z,102380.22
2023-04-09T07:07:11.017Z,102380.38
2023-04-09T07:09:40.445Z,102389.22
2023-04-09T07:12:07.393Z,102389.72
2023-04-09T07:14:34.326Z,102385.00
2023-04-09T07:17:03.260Z,102379.84
2023-04-09T07:19:30.930Z,102384.59
2023-04-09T07:22:00.310Z,102383.50
2023-04-09T07:24:30.073Z,102374.34
2023-04-09T07:27:06.362Z,102380.50
2023-04-09T07:29:33.291Z,102378.63
2023-04-09T07:32:01.450Z,102375.97
2023-04-09T07:34:31.100Z,102381.25
2023-04-09T07:37:01.004Z,102380.19
2023-04-09T07:39:27.944Z,102375.97
2023-04-09T07:41:54.866Z,102385.44
2023-04-09T07:44:24.798Z,102386.09
2023-04-09T07:46:56.783Z,102377.56
2023-04-09T07:49:23.816Z,102370.53
2023-04-09T07:51:51.254Z,102382.47
2023-04-09T07:54:23.192Z,102377.13
2023-04-09T07:56:52.186Z,102384.16
2023-04-09T07:59:21.788Z,102384.75
2023-04-09T08:01:48.843Z,102373.63
2023-04-09T08:04:18.456Z,102373.66
2023-04-09T08:06:51.134Z,102366.47
2023-04-09T08:09:21.317Z,102374.78
2023-04-09T08:11:51.474Z,102367.63
2023-04-09T08:14:18.931Z,102377.19
2023-04-09T08:16:52.602Z,102378.16
2023-04-09T08:19:21.855Z,102373.63
2023-04-09T08:21:49.582Z,102375.06
2023-04-09T08:24:19.140Z,102367.47
2023-04-09T08:26:49.176Z,102376.75
2023-04-09T08:29:16.269Z,102363.47
2023-04-09T08:31:43.275Z,102371.63
2023-04-09T08:34:10.276Z,102372.78
2023-04-09T08:36:40.205Z,102373.94
2023-04-09T08:39:07.069Z,102377.81
2023-04-09T08:41:36.084Z,102372.94
2023-04-09T08:44:05.476Z,102381.94
2023-04-09T08:46:34.951Z,102378.22
2023-04-09T08:49:04.628Z,102381.34
2023-04-09T08:51:34.571Z,102379.69
2023-04-09T08:54:06.558Z,102382.34
2023-04-09T08:56:33.772Z,102381.53
2023-04-09T08:59:02.952Z,102375.38
2023-04-09T09:01:31.779Z,102381.00
2023-04-09T09:04:11.526Z,102383.00
2023-04-09T09:06:41.043Z,102380.09
2023-04-09T09:09:11.842Z,102388.75
2023-04-09T09:11:44.220Z,102384.47
2023-04-09T09:14:13.927Z,102390.94
2023-04-09T09:16:44.631Z,102388.50
2023-04-09T09:19:31.459Z,102391.19
2023-04-09T09:22:08.005Z,102381.06
2023-04-09T09:24:51.267Z,102378.50
2023-04-09T09:27:36.933Z,102380.06
2023-04-09T09:30:08.658Z,102391.66
2023-04-09T09:32:36.398Z,102391.97
2023-04-09T09:35:09.324Z,102385.38
2023-04-09T09:37:38.360Z,102378.19
2023-04-09T09:40:08.924Z,102379.19
2023-04-09T09:42:35.929Z,102381.13
2023-04-09T09:45:17.761Z,102371.28
2023-04-09T09:47:46.703Z,102377.53
2023-04-09T09:50:16.161Z,102369.03
2023-04-09T09:52:45.916Z,102368.94
2023-04-09T09:55:19.765Z,102370.47
2023-04-09T09:57:54.353Z,102370.97
2023-04-09T10:00:25.545Z,102366.78
2023-04-09T10:03:07.268Z,102371.50
2023-04-09T10:05:36.697Z,102362.16
2023-04-09T10:08:08.839Z,102366.59
2023-04-09T10:10:38.477Z,102368.56
2023-04-09T10:13:10.955Z,102358.63
2023-04-09T10:15:38.618Z,102361.09
2023-04-09T10:18:05.714Z,102363.13
2023-04-09T10:21:08.068Z,102361.47
2023-04-09T10:23:42.837Z,102364.34
2023-04-09T10:26:10.341Z,102353.09
2023-04-09T10:28:41.140Z,102357.22
2023-04-09T10:31:08.618Z,102353.69
2023-04-09T10:33:38.782Z,102343.59
2023-04-09T10:36:10.970Z,102352.16
2023-04-09T10:38:48.730Z,102342.56
2023-04-09T10:41:22.786Z,102341.72
2023-04-09T10:43:50.291Z,102337.09
2023-04-09T10:46:37.087Z,102333.13
2023-04-09T10:49:19.911Z,102333.91
2023-04-09T10:52:12.583Z,102334.44
2023-04-09T10:54:46.463Z,102329.28
2023-04-09T10:57:22.856Z,102329.78
2023-04-09T10:59:51.979Z,102326.47
2023-04-09T11:02:54.835Z,102328.75
2023-04-09T11:05:40.013Z,102317.88
2023-04-09T11:08:14.421Z,102318.53
2023-04-09T11:10:49.115Z,102313.84
2023-04-09T11:13:20.033Z,102310.75
2023-04-09T11:15:47.141Z,102302.06
2023-04-09T11:18:23.224Z,102301.19
2023-04-09T11:20:50.530Z,102295.91
2023-04-09T11:23:18.698Z,102299.06
2023-04-09T11:25:51.092Z,102291.00
2023-04-09T11:28:21.586Z,102288.47
2023-04-09T11:30:51.829Z,102295.72
2023-04-09T11:33:20.268Z,102283.63
2023-04-09T11:35:48.831Z,102294.53
2023-04-09T11:38:18.334Z,102277.16
2023-04-09T11:40:48.669Z,102297.47
2023-04-09T11:43:16.900Z,102281.28
2023-04-09T11:45:49.571Z,102283.22
2023-04-09T11:48:21.724Z,102281.09
2023-04-09T11:50:53.014Z,102286.84
2023-04-09T11:53:25.293Z,102281.06
2023-04-09T11:55:55.182Z,102282.34
2023-04-09T11:58:28.560Z,102284.44
2023-04-09T12:01:00.981Z,102288.84
2023-04-09T12:03:34.377Z,102279.09
2023-04-09T12:06:06.154Z,102282.09
2023-04-09T12:08:37.265Z,102279.00
2023-04-09T12:11:18.089Z,102283.63
2023-04-09T12:13:46.927Z,102267.81
2023-04-09T12:16:20.764Z,102278.19
2023-04-09T12:18:50.874Z,102270.88
2023-04-09T12:21:20.414Z,102271.78
2023-04-09T12:23:50.439Z,102266.25
2023-04-09T12:26:19.670Z,102266.03
2023-04-09T12:28:48.982Z,102268.38
2023-04-09T12:31:18.343Z,102273.16
2023-04-09T12:33:45.545Z,102269.94
2023-04-09T12:36:15.105Z,102259.63
2023-04-09T12:38:42.184Z,102255.91
2023-04-09T12:41:09.669Z,102254.78
2023-04-09T12:43:37.279Z,102252.91
2023-04-09T12:46:07.357Z,102253.22
2023-04-09T12:48:35.116Z,102253.94
2023-04-09T12:51:07.275Z,102248.06
2023-04-09T12:53:34.433Z,102235.44
2023-04-09T12:56:01.793Z,102243.06
2023-04-09T12:58:29.430Z,102243.50
2023-04-09T13:00:57.159Z,102239.47
2023-04-09T13:03:27.837Z,102236.13
2023-04-09T13:05:57.803Z,102230.19
2023-04-09T13:08:25.459Z,102225.00
2023-04-09T13:10:52.871Z,102215.75
2023-04-09T13:13:20.117Z,102218.25
2023-04-09T13:15:47.268Z,102217.94
2023-04-09T13:18:17.493Z,102211.84
2023-04-09T13:20:44.503Z,102209.31
2023-04-09T13:23:11.694Z,102212.59
2023-04-09T13:25:38.959Z,102216.81
2023-04-09T13:28:08.150Z,102210.78
2023-04-09T13:30:35.640Z,102196.28
2023-04-09T13:33:04.769Z,102195.72
2023-04-09T13:35:35.040Z,102195.63
2023-04-09T13:38:04.441Z,102191.63
2023-04-09T13:40:34.085Z,102185.69
2023-04-09T13:43:01.479Z,102178.25
2023-04-09T13:45:32.941Z,102188.19
2023-04-09T13:48:00.186Z,102173.09
2023-04-09T13:50:27.227Z,102167.31
2023-04-09T13:52:54.504Z,102175.50
2023-04-09T13:55:24.141Z,102165.75
2023-04-09T13:57:51.207Z,102165.38
2023-04-09T14:00:22.884Z,102164.28
2023-04-09T14:02:49.949Z,102157.63
2023-04-09T14:05:17.714Z,102158.94
2023-04-09T14:07:44.794Z,102163.69
2023-04-09T14:10:12.580Z,102155.56
2023-04-09T14:12:39.556Z,102161.31
2023-04-09T14:15:10.269Z,102152.97
2023-04-09T14:17:37.282Z,102153.44
2023-04-09T14:20:05.168Z,102154.53
2023-04-09T14:22:35.079Z,102161.34
2023-04-09T14:25:04.587Z,102156.22
2023-04-09T14:27:34.473Z,102160.38
2023-04-09T14:30:01.651Z,102143.34
2023-04-09T14:32:28.852Z,102149.78
2023-04-09T14:34:58.125Z,102145.56
2023-04-09T14:37:27.901Z,102140.22
2023-04-09T14:39:57.648Z,102139.31
2023-04-09T14:42:24.722Z,102133.31
2023-04-09T14:44:51.782Z,102138.25
2023-04-09T14:47:18.904Z,102130.34
2023-04-09T14:49:48.398Z,102134.03
2023-04-09T14:52:15.491Z,102129.75
2023-04-09T14:54:42.806Z,102133.56
2023-04-09T14:57:09.900Z,102135.63
2023-04-09T14:59:37.059Z,102133.69
2023-04-09T15:02:08.833Z,102120.97
2023-04-09T15:04:38.134Z,102128.91
2023-04-09T15:07:06.816Z,102127.22
2023-04-09T15:09:33.905Z,102130.50
2023-04-09T15:12:01.536Z,102124.63
2023-04-09T15:14:34.105Z,102116.34
2023-04-09T15:17:01.063Z,102115.19
2023-04-09T15:19:32.522Z,102118.34
2023-04-09T15:21:59.617Z,102116.16
2023-04-09T15:24:28.519Z,102113.50
2023-04-09T15:26:57.074Z,102111.69
2023-04-09T15:29:24.068Z,102118.81
2023-04-09T15:31:53.359Z,102108.13
2023-04-09T15:34:20.539Z,102122.44
2023-04-09T15:36:47.783Z,102112.69
2023-04-09T15:39:15.165Z,102129.19
2023-04-09T15:41:42.266Z,102105.19
2023-04-09T15:44:10.789Z,102113.09
2023-04-09T15:46:43.031Z,102104.41
2023-04-09T15:49:12.540Z,102107.78
2023-04-09T15:51:39.568Z,102105.69
2023-04-09T15:54:06.798Z,102104.63
2023-04-09T15:56:36.354Z,102106.84
2023-04-09T15:59:05.412Z,102102.22
2023-04-09T16:01:33.184Z,102107.69
2023-04-09T16:04:00.341Z,102111.97
2023-04-09T16:06:27.559Z,102100.31
2023-04-09T16:08:54.832Z,102119.16
2023-04-09T16:11:22.320Z,102107.50
2023-04-09T16:13:49.396Z,102105.34
2023-04-09T16:16:19.388Z,102110.41
2023-04-09T16:18:46.436Z,102104.13
2023-04-09T16:21:13.776Z,102102.38
2023-04-09T16:23:41.306Z,102110.47
2023-04-09T16:26:11.284Z,102113.03
2023-04-09T16:28:38.281Z,102101.06
2023-04-09T16:31:07.999Z,102123.59
2023-04-09T16:33:35.208Z,102109.94
2023-04-09T16:36:02.665Z,102106.84
2023-04-09T16:38:32.115Z,102113.50
2023-04-09T16:41:02.133Z,102115.13
2023-04-09T16:43:30.546Z,102111.03
2023-04-09T16:45:57.560Z,102103.66
2023-04-09T16:48:27.007Z,102106.47
2023-04-09T16:50:56.591Z,102108.09
2023-04-09T16:53:23.618Z,102111.06
2023-04-09T16:55:50.763Z,102118.81
2023-04-09T16:58:17.942Z,102123.25
2023-04-09T17:00:51.856Z,102118.00
2023-04-09T17:03:19.485Z,102106.50
2023-04-09T17:05:49.635Z,102121.06
2023-04-09T17:08:17.443Z,102120.63
2023-04-09T17:10:44.949Z,102119.41
2023-04-09T17:13:12.262Z,102119.94
2023-04-09T17:15:39.588Z,102115.25
2023-04-09T17:18:09.000Z,102119.03
2023-04-09T17:20:35.958Z,102132.88
2023-04-09T17:23:03.125Z,102123.84
2023-04-09T17:25:30.266Z,102134.41
2023-04-09T17:27:57.547Z,102117.56
2023-04-09T17:30:24.573Z,102115.50
2023-04-09T17:32:52.237Z,102113.59
2023-04-09T17:35:19.280Z,102122.28
2023-04-09T17:37:46.792Z,102121.81
2023-04-09T17:40:18.649Z,102126.31
2023-04-09T17:42:49.192Z,102126.72
2023-04-09T17:45:18.705Z,102130.25
2023-04-09T17:47:48.392Z,102125.94
2023-04-09T17:50:15.495Z,102133.28
2023-04-09T17:52:44.828Z,102129.53
2023-04-09T17:55:15.583Z,102127.66
2023-04-09T17:57:43.019Z,102130.75
2023-04-09T18:00:16.287Z,102132.69
2023-04-09T18:02:47.170Z,102124.78
2023-04-09T18:05:14.643Z,102131.41
2023-04-09T18:07:41.714Z,102127.66
2023-04-09T18:10:09.139Z,102123.59
2023-04-09T18:12:36.351Z,102119.66
2023-04-09T18:15:04.311Z,102125.59
2023-04-09T18:17:33.842Z,102127.25
2023-04-09T18:20:01.398Z,102131.91
2023-04-09T18:22:28.579Z,102135.03
2023-04-09T18:24:56.091Z,102126.31
2023-04-09T18:27:25.701Z,102130.22
2023-04-09T18:29:52.711Z,102137.84
2023-04-09T18:32:20.194Z,102140.88
2023-04-09T18:34:50.327Z,102130.91
2023-04-09T18:37:20.549Z,102144.31
2023-04-09T18:39:47.975Z,102140.50
2023-04-09T18:42:17.540Z,102133.78
2023-04-09T18:44:47.298Z,102140.09
2023-04-09T18:47:14.246Z,102134.19
2023-04-09T18:49:41.606Z,102139.88
2023-04-09T18:52:10.271Z,102142.75
2023-04-09T18:54:38.923Z,102137.69
2023-04-09T18:57:06.582Z,102144.16
2023-04-09T18:59:35.200Z,102143.44
2023-04-09T19:02:08.812Z,102150.00
2023-04-09T19:04:39.705Z,102146.88
2023-04-09T19:07:10.250Z,102149.09
2023-04-09T19:09:41.960Z,102149.03
2023-04-09T19:12:11.568Z,102150.25
2023-04-09T19:14:40.295Z,102150.25
2023-04-09T19:17:08.000Z,102145.50
2023-04-09T19:19:35.116Z,102139.13
2023-04-09T19:22:09.155Z,102139.72
2023-04-09T19:24:38.409Z,102144.88
2023-04-09T19:27:10.091Z,102148.91
2023-04-09T19:29:41.562Z,102144.16
2023-04-09T19:32:13.264Z,102151.13
2023-04-09T19:34:40.674Z,102141.44
2023-04-09T19:37:11.542Z,102143.03
2023-04-09T19:39:43.280Z,102156.13
2023-04-09T19:42:10.295Z,102142.94
2023-04-09T19:44:39.434Z,102159.28
2023-04-09T19:47:06.445Z,102151.84
2023-04-09T19:49:35.751Z,102153.44
2023-04-09T19:52:06.827Z,102162.63
2023-04-09T19:54:34.860Z,102155.06
2023-04-09T19:57:03.787Z,102151.34
2023-04-09T19:59:36.297Z,102168.84
2023-04-09T20:02:03.621Z,102165.88
2023-04-09T20:04:30.987Z,102164.72
2023-04-09T20:06:58.027Z,102164.00
2023-04-09T20:09:27.657Z,102163.28
2023-04-09T20:11:58.424Z,102166.31
2023-04-09T20:14:27.738Z,102170.03
2023-04-09T20:16:54.954Z,102166.31
2023-04-09T20:19:24.388Z,102162.88
2023-04-09T20:21:51.317Z,102168.75
2023-04-09T20:24:18.249Z,102159.19
2023-04-09T20:26:50.911Z,102165.75
2023-04-09T20:29:21.008Z,102161.03
2023-04-09T20:31:48.109Z,102162.56
2023-04-09T20:34:15.345Z,102169.66
2023-04-09T20:36:44.510Z,102163.22
2023-04-09T20:39:14.015Z,102160.25
2023-04-09T20:41:40.994Z,102155.53
2023-04-09T20:44:10.272Z,102163.59
2023-04-09T20:46:37.384Z,102154.31
2023-04-09T20:49:08.994Z,102153.47
2023-04-09T20:51:38.442Z,102144.22
2023-04-09T20:54:05.436Z,102152.38
2023-04-09T20:56:32.709Z,102148.84
2023-04-09T20:58:59.703Z,102141.66
2023-04-09T21:01:29.617Z,102147.59
2023-04-09T21:03:56.863Z,102137.00
2023-04-09T21:06:24.256Z,102132.78
2023-04-09T21:08:51.695Z,102138.88
2023-04-09T21:11:18.870Z,102141.06
2023-04-09T21:13:54.379Z,102139.75
2023-04-09T21:16:22.826Z,102139.59
2023-04-09T21:18:50.473Z,102139.88
2023-04-09T21:21:17.700Z,102131.88
2023-04-09T21:23:44.727Z,102133.25
2023-04-09T21:26:11.963Z,102131.34
2023-04-09T21:28:41.486Z,102135.72
2023-04-09T21:31:15.963Z,102134.38
2023-04-09T21:33:45.380Z,102139.53
2023-04-09T21:36:14.739Z,102136.75
2023-04-09T21:38:44.200Z,102136.13
2023-04-09T21:41:11.133Z,102127.59
2023-04-09T21:43:40.677Z,102127.22
2023-04-09T21:46:10.125Z,102128.69
2023-04-09T21:48:41.043Z,102119.34
2023-04-09T21:51:14.766Z,102120.03
2023-04-09T21:53:43.840Z,102128.38
2023-04-09T21:56:10.835Z,102122.41
2023-04-09T21:58:40.246Z,102125.72
2023-04-09T22:01:15.725Z,102131.34
2023-04-09T22:03:49.908Z,102126.31
2023-04-09T22:06:21.590Z,102128.16
2023-04-09T22:08:56.161Z,102141.38
2023-04-09T22:11:29.723Z,102141.97
2023-04-09T22:13:57.710Z,102150.56
2023-04-09T22:16:27.527Z,102138.00
2023-04-09T22:18:55.289Z,102138.56
2023-04-09T22:21:22.512Z,102137.44
2023-04-09T22:23:52.035Z,102135.75
2023-04-09T22:26:21.994Z,102133.25
2023-04-09T22:28:51.437Z,102138.16
2023-04-09T22:31:23.114Z,102146.44
2023-04-09T22:33:50.614Z,102137.19
2023-04-09T22:36:17.661Z,102137.00
2023-04-09T22:38:46.974Z,102139.78
2023-04-09T22:41:15.940Z,102139.13
2023-04-09T22:43:42.939Z,102134.19
2023-04-09T22:46:13.016Z,102132.28
2023-04-09T22:48:44.941Z,102144.34
2023-04-09T22:51:15.464Z,102134.47
2023-04-09T22:53:46.828Z,102140.59
2023-04-09T22:56:16.170Z,102133.28
2023-04-09T22:58:43.214Z,102128.47
2023-04-09T23:01:10.207Z,102126.59
2023-04-09T23:03:39.770Z,102127.84
2023-04-09T23:06:06.911Z,102126.34
2023-04-09T23:08:33.870Z,102122.16
2023-04-09T23:11:01.215Z,102122.88
2023-04-09T23:13:34.830Z,102115.06
2023-04-09T23:16:08.459Z,102116.81
2023-04-09T23:18:36.319Z,102125.19
2023-04-09T23:21:08.135Z,102119.66
2023-04-09T23:23:39.086Z,102118.66
2023-04-09T23:26:10.976Z,102118.69
2023-04-09T23:28:37.951Z,102122.25
2023-04-09T23:31:07.513Z,102117.06
2023-04-09T23:33:39.952Z,102118.28
2023-04-09T23:36:07.324Z,102117.28
2023-04-09T23:38:34.309Z,102109.19
2023-04-09T23:41:03.427Z,102115.63
2023-04-09T23:43:30.610Z,102110.94
2023-04-09T23:45:57.605Z,102109.69
2023-04-09T23:48:26.856Z,102113.16
2023-04-09T23:50:56.819Z,102106.25
2023-04-09T23:53:23.922Z,102109.97
2023-04-09T23:55:51.049Z,102111.50
2023-04-09T23:58:18.755Z,102103.25
